Time;durP1;ratioP1;P1;durP2;ratioP2;P2;SDS_P1;SDS_P2;PMS_P1;PMS_P2;Temp;Humidity;BMP_temperature;BMP_pressure;BME280_temperature;BME280_humidity;BME280_pressure;Samples;Min_cycle;Max_cycle;Signal;HPM_P1;HPM_P2
2022/02/03 00:01:24;;;;;;;8.50;3.73;;;15.80;54.30;;;;;;5120420;28;20438;-86
2022/02/03 00:03:57;;;;;;;7.07;3.50;;;15.80;54.20;;;;;;5119200;28;20523;-86
2022/02/03 00:06:32;;;;;;;10.53;4.00;;;15.80;54.20;;;;;;5119043;28;20459;-86
2022/02/03 00:09:22;;;;;;;10.43;4.10;;;15.80;54.20;;;;;;5116953;28;20469;-86
2022/02/03 00:23:03;;;;;;;6.50;3.20;;;15.70;54.30;;;;;;5119287;28;20424;-86
2022/02/03 00:25:35;;;;;;;6.70;3.90;;;15.70;54.30;;;;;;5119895;28;20465;-86
2022/02/03 00:28:09;;;;;;;8.33;3.97;;;15.70;54.40;;;;;;5113188;28;20495;-86
2022/02/03 00:31:00;;;;;;;10.63;3.70;;;15.70;54.30;;;;;;5119150;28;20459;-86
2022/02/03 00:33:32;;;;;;;7.60;3.57;;;15.70;54.40;;;;;;5119011;28;20505;-86
2022/02/03 00:36:12;;;;;;;8.97;4.00;;;15.70;54.40;;;;;;5118426;28;20423;-86
2022/02/03 00:50:03;;;;;;;6.30;3.07;;;15.60;54.70;;;;;;5118150;28;20481;-86
2022/02/03 00:52:33;;;;;;;8.97;3.70;;;15.60;54.50;;;;;;5119067;28;20526;-86
2022/02/03 00:55:01;;;;;;;6.33;3.63;;;15.60;54.70;;;;;;5119410;28;20448;-86
2022/02/03 00:57:32;;;;;;;7.97;3.17;;;15.70;54.60;;;;;;5118968;28;20540;-86
2022/02/03 01:00:04;;;;;;;6.27;3.63;;;15.70;54.60;;;;;;5118982;28;20468;-86
2022/02/03 01:02:32;;;;;;;10.57;4.17;;;15.70;54.60;;;;;;5111989;28;20452;-86
2022/02/03 01:05:02;;;;;;;8.00;3.50;;;15.70;54.60;;;;;;5118491;28;20444;-86
2022/02/03 01:07:31;;;;;;;6.37;3.60;;;15.60;54.50;;;;;;5117758;28;20480;-86
2022/02/03 01:10:05;;;;;;;11.90;3.77;;;15.60;54.40;;;;;;5119253;28;20435;-86
2022/02/03 01:12:40;;;;;;;8.77;4.10;;;15.60;54.70;;;;;;5119910;28;20455;-86
2022/02/03 01:15:19;;;;;;;7.70;4.27;;;15.60;54.60;;;;;;5120402;28;20443;-87
2022/02/03 01:17:56;;;;;;;8.63;3.57;;;15.60;54.50;;;;;;5120226;28;20428;-86
2022/02/03 01:37:36;;;;;;;7.13;3.90;;;15.60;54.80;;;;;;5081646;28;20543;-86
2022/02/03 01:45:50;;;;;;;10.70;4.10;;;15.70;55.00;;;;;;5122416;28;20473;-85
2022/02/03 01:48:23;;;;;;;8.90;4.00;;;15.60;54.70;;;;;;5121308;28;20507;-86
2022/02/03 01:53:41;;;;;;;6.70;3.77;;;15.70;54.60;;;;;;5120725;28;20981;-86
2022/02/03 01:56:11;;;;;;;6.87;3.53;;;15.70;54.90;;;;;;5112643;28;20501;-86
2022/02/03 01:58:48;;;;;;;10.20;3.43;;;15.70;54.80;;;;;;5121193;28;20486;-86
2022/02/03 02:01:22;;;;;;;9.60;3.50;;;15.70;54.80;;;;;;5121761;28;20451;-86
2022/02/03 02:03:52;;;;;;;6.77;3.53;;;15.70;54.80;;;;;;5121039;28;20501;-86
2022/02/03 02:06:36;;;;;;;8.57;3.90;;;15.70;54.90;;;;;;5120943;28;20427;-86
2022/02/03 02:09:07;;;;;;;6.27;3.60;;;15.70;54.90;;;;;;5119906;28;20474;-86
2022/02/03 02:11:46;;;;;;;8.90;3.90;;;15.70;55.00;;;;;;5120498;28;20474;-85
2022/02/03 02:14:47;;;;;;;4.47;3.70;;;15.70;54.90;;;;;;5114200;28;20512;-85
2022/02/03 02:36:49;;;;;;;8.00;3.70;;;15.70;54.90;;;;;;5086755;28;20433;-85
2022/02/03 02:37:16;;;;;;;7.10;3.93;;;15.70;55.10;;;;;;5120325;28;20463;-85
2022/02/03 02:40:29;;;;;;;4.17;2.93;;;15.70;55.10;;;;;;5112852;28;20491;-85
2022/02/03 02:43:21;;;;;;;5.03;3.17;;;15.70;55.10;;;;;;5111487;28;20475;-85
2022/02/03 02:45:54;;;;;;;7.23;3.80;;;15.70;55.10;;;;;;5111179;28;20459;-85
2022/02/03 02:48:48;;;;;;;7.23;3.63;;;15.70;55.10;;;;;;5120583;28;20485;-85
2022/02/03 02:51:24;;;;;;;7.40;3.63;;;15.70;55.10;;;;;;5117480;28;20432;-85
2022/02/03 02:54:12;;;;;;;5.23;3.07;;;15.70;55.20;;;;;;5120578;28;20435;-85
2022/02/03 02:56:54;;;;;;;5.20;3.30;;;15.70;55.10;;;;;;5118004;28;20416;-85
2022/02/03 02:59:43;;;;;;;4.17;3.30;;;15.70;55.40;;;;;;5119345;28;20432;-86
2022/02/03 03:02:40;;;;;;;5.17;3.37;;;15.70;55.10;;;;;;5121436;28;20452;-86
2022/02/03 03:30:12;;;;;;;6.37;3.50;;;15.80;55.30;;;;;;5119720;28;20466;-86
2022/02/03 03:32:56;;;;;;;4.70;2.83;;;15.80;55.30;;;;;;5117174;28;20482;-86
2022/02/03 03:35:36;;;;;;;5.80;3.50;;;15.80;55.30;;;;;;5117508;28;20545;-86
2022/02/03 03:38:05;;;;;;;7.40;3.83;;;15.80;55.80;;;;;;5120622;28;20439;-86
2022/02/03 03:40:34;;;;;;;5.00;3.63;;;15.80;55.20;;;;;;5120808;28;20456;-86
2022/02/03 03:43:04;;;;;;;5.73;3.63;;;15.80;55.30;;;;;;5120450;28;20428;-86
2022/02/03 03:45:33;;;;;;;7.27;3.70;;;15.80;55.40;;;;;;5120175;28;20479;-85
2022/02/03 03:48:09;;;;;;;7.53;3.93;;;15.90;55.30;;;;;;5119753;28;20461;-85
2022/02/03 03:50:39;;;;;;;7.53;3.90;;;15.90;55.30;;;;;;5110488;28;20453;-85
2022/02/03 03:53:11;;;;;;;9.53;4.17;;;15.90;55.30;;;;;;5119004;28;20424;-86
2022/02/03 03:55:49;;;;;;;5.40;3.97;;;15.90;55.40;;;;;;5119950;28;20460;-86
2022/02/03 03:58:39;;;;;;;4.80;3.73;;;15.90;55.30;;;;;;5120291;28;20449;-86
2022/02/03 04:33:38;;;;;;;6.07;3.80;;;16.00;55.60;;;;;;5118170;28;20493;-86
2022/02/03 04:42:02;;;;;;;4.70;3.53;;;16.00;55.50;;;;;;5115963;28;20542;-85
2022/02/03 04:51:05;;;;;;;4.60;3.90;;;16.00;55.50;;;;;;5119115;28;20428;-84
2022/02/03 04:56:54;;;;;;;3.93;3.57;;;16.10;55.50;;;;;;5117688;28;20523;-83
2022/02/03 05:02:38;;;;;;;4.23;3.43;;;16.10;55.40;;;;;;5090699;28;20995;-82
2022/02/03 05:05:21;;;;;;;4.33;3.90;;;16.10;55.50;;;;;;5119325;28;20475;-81
2022/02/03 05:08:19;;;;;;;4.23;3.83;;;16.10;55.50;;;;;;5110007;27;20464;-82
2022/02/03 05:11:11;;;;;;;4.97;3.87;;;16.20;56.10;;;;;;5100425;28;20468;-82
2022/02/03 05:14:19;;;;;;;4.00;3.43;;;16.20;55.50;;;;;;5101015;28;20488;-81
2022/02/03 05:26:12;;;;;;;4.57;3.23;;;16.20;55.50;;;;;;5129053;28;20470;-81
2022/02/03 05:35:27;;;;;;;4.40;3.80;;;16.20;55.50;;;;;;5103705;27;20502;-83
2022/02/03 05:44:17;;;;;;;5.00;3.83;;;16.30;55.50;;;;;;5116984;28;20490;-82
2022/02/03 05:50:02;;;;;;;4.63;4.10;;;16.30;55.50;;;;;;5105181;27;20460;-82
2022/02/03 05:52:43;;;;;;;5.97;4.33;;;16.30;55.50;;;;;;5122496;28;20463;-83
2022/02/03 06:06:47;;;;;;;6.20;3.97;;;16.30;55.40;;;;;;5099444;28;20531;-82
2022/02/03 06:09:25;;;;;;;7.03;4.40;;;16.40;55.60;;;;;;5121374;28;20554;-81
2022/02/03 06:14:42;;;;;;;4.47;3.63;;;16.30;55.50;;;;;;5121246;28;20451;-81
2022/02/03 06:17:30;;;;;;;3.87;3.53;;;16.40;55.60;;;;;;5120308;28;20966;-82
2022/02/03 06:22:48;;;;;;;4.73;3.80;;;16.40;55.60;;;;;;5116057;28;20538;-82
2022/02/03 06:28:01;;;;;;;3.80;3.50;;;16.40;55.60;;;;;;5120264;28;20489;-82
2022/02/03 06:30:29;;;;;;;4.70;3.93;;;16.40;55.60;;;;;;5120135;28;20503;-82
2022/02/03 06:32:58;;;;;;;5.53;4.10;;;16.40;55.60;;;;;;5119831;28;20511;-82
2022/02/03 06:35:26;;;;;;;5.33;3.90;;;16.40;55.60;;;;;;5120352;28;20479;-82
2022/02/03 06:37:54;;;;;;;4.27;3.87;;;16.40;55.60;;;;;;5120299;28;20456;-82
2022/02/03 06:40:21;;;;;;;5.40;4.10;;;16.40;55.60;;;;;;5112739;28;20452;-82
2022/02/03 06:42:54;;;;;;;4.80;3.90;;;16.50;55.70;;;;;;5120114;28;20434;-82
2022/02/03 06:45:33;;;;;;;4.20;3.80;;;16.50;55.60;;;;;;5120570;28;20517;-83
2022/02/03 06:48:07;;;;;;;5.97;3.73;;;16.50;55.80;;;;;;5122035;28;20458;-82
2022/02/03 06:50:39;;;;;;;4.23;3.60;;;16.50;55.80;;;;;;5120717;28;20468;-82
2022/02/03 06:53:11;;;;;;;4.10;3.70;;;16.50;55.60;;;;;;5121318;28;20420;-82
2022/02/03 06:55:46;;;;;;;5.33;4.17;;;16.50;55.60;;;;;;5119381;28;20443;-82
2022/02/03 06:58:20;;;;;;;6.23;4.00;;;16.50;56.30;;;;;;5117028;28;20447;-83
2022/02/03 07:00:58;;;;;;;5.10;4.17;;;16.50;55.70;;;;;;5100819;28;20440;-83
2022/02/03 07:03:31;;;;;;;6.87;3.90;;;16.50;55.80;;;;;;5100444;28;20524;-82
2022/02/03 07:05:59;;;;;;;6.73;4.03;;;16.50;55.70;;;;;;5100527;28;20452;-83
2022/02/03 07:08:30;;;;;;;3.73;3.30;;;16.50;55.80;;;;;;5100234;28;20465;-82
2022/02/03 07:10:59;;;;;;;4.10;3.67;;;16.50;55.80;;;;;;5100393;28;20492;-82
2022/02/03 07:13:27;;;;;;;6.73;4.03;;;16.50;55.80;;;;;;5104804;28;20476;-83
2022/02/03 07:15:57;;;;;;;4.13;3.70;;;16.50;55.80;;;;;;5119185;28;20443;-82
2022/02/03 07:18:28;;;;;;;4.70;4.00;;;16.50;55.80;;;;;;5121931;28;20489;-82
2022/02/03 07:20:55;;;;;;;4.90;3.80;;;16.50;55.70;;;;;;5122094;28;20412;-82
2022/02/03 07:23:23;;;;;;;4.37;3.97;;;16.50;55.80;;;;;;5121567;28;20467;-82
2022/02/03 07:25:51;;;;;;;5.47;4.47;;;16.50;55.80;;;;;;5121599;28;20443;-82
2022/02/03 07:28:19;;;;;;;4.37;3.87;;;16.50;55.90;;;;;;5120443;28;20431;-82
2022/02/03 07:30:47;;;;;;;4.10;3.70;;;16.50;55.80;;;;;;5117262;28;20499;-82
2022/02/03 07:33:15;;;;;;;4.87;4.37;;;16.50;55.80;;;;;;5120908;28;20466;-82
2022/02/03 07:35:46;;;;;;;5.00;4.30;;;16.50;55.80;;;;;;5120540;28;20440;-82
2022/02/03 07:38:13;;;;;;;6.47;3.90;;;16.50;55.80;;;;;;5120895;28;20440;-82
2022/02/03 07:40:42;;;;;;;4.73;3.70;;;16.50;56.00;;;;;;5120441;28;20428;-83
2022/02/03 07:43:11;;;;;;;4.80;4.10;;;16.50;55.90;;;;;;5120253;28;20447;-83
2022/02/03 07:45:39;;;;;;;4.70;4.30;;;16.50;55.90;;;;;;5116959;28;20478;-82
2022/02/03 07:48:06;;;;;;;5.10;4.30;;;16.50;55.90;;;;;;5115371;28;20443;-83
2022/02/03 07:50:34;;;;;;;5.20;3.93;;;16.60;55.90;;;;;;5121193;28;20494;-83
2022/02/03 07:53:04;;;;;;;6.10;5.00;;;16.50;55.90;;;;;;5122374;28;20431;-82
2022/02/03 07:55:32;;;;;;;5.23;4.40;;;16.50;56.00;;;;;;5122558;28;20456;-83
2022/02/03 07:58:00;;;;;;;6.07;4.30;;;16.60;55.90;;;;;;5122549;28;20487;-83
2022/02/03 08:00:28;;;;;;;4.60;4.20;;;16.50;55.90;;;;;;5121488;28;20493;-82
2022/02/03 08:03:12;;;;;;;5.60;4.57;;;16.60;56.10;;;;;;5118350;28;20524;-82
2022/02/03 08:05:42;;;;;;;6.90;5.03;;;16.60;56.10;;;;;;5121225;28;20436;-82
2022/02/03 08:08:19;;;;;;;5.13;4.40;;;16.60;56.00;;;;;;5120649;28;20440;-82
2022/02/03 08:10:50;;;;;;;5.10;4.40;;;16.60;56.00;;;;;;5120744;28;20471;-82
2022/02/03 08:13:23;;;;;;;6.00;4.93;;;16.60;56.10;;;;;;5120035;28;20527;-82
2022/02/03 08:15:59;;;;;;;5.73;4.97;;;16.60;56.10;;;;;;5115700;28;20444;-82
2022/02/03 08:18:31;;;;;;;7.63;4.70;;;16.60;56.10;;;;;;5117491;28;20463;-82
2022/02/03 08:21:03;;;;;;;7.00;5.33;;;16.60;56.00;;;;;;5115395;28;20452;-82
2022/02/03 08:26:42;;;;;;;6.50;5.20;;;16.60;56.00;;;;;;5103220;27;20435;-82
2022/02/03 08:29:18;;;;;;;8.30;6.10;;;16.60;56.00;;;;;;5110106;28;20436;-82
2022/02/03 08:31:53;;;;;;;6.00;5.37;;;16.60;56.10;;;;;;5109497;28;20471;-82
2022/02/03 08:34:33;;;;;;;7.27;5.40;;;16.60;56.10;;;;;;5108758;28;20452;-82
2022/02/03 08:37:02;;;;;;;6.60;5.40;;;16.60;56.10;;;;;;5108057;28;20429;-82
2022/02/03 08:39:36;;;;;;;6.77;5.60;;;16.60;56.70;;;;;;5110269;28;20494;-82
2022/02/03 08:42:05;;;;;;;5.87;5.20;;;16.70;56.10;;;;;;5117125;28;20449;-81
2022/02/03 08:44:33;;;;;;;7.70;6.27;;;16.60;56.10;;;;;;5112277;28;20456;-82
2022/02/03 08:47:01;;;;;;;7.40;5.90;;;16.60;56.20;;;;;;5113134;28;20420;-82
2022/02/03 08:49:29;;;;;;;9.30;6.03;;;16.70;56.30;;;;;;5112421;28;20468;-82
2022/02/03 08:52:04;;;;;;;8.30;5.90;;;16.60;56.20;;;;;;5110624;28;20472;-82
2022/02/03 08:54:36;;;;;;;8.30;6.57;;;16.70;56.10;;;;;;5111294;28;20459;-82
2022/02/03 08:57:12;;;;;;;7.03;5.77;;;16.70;56.30;;;;;;5108316;28;20454;-82
2022/02/03 09:00:07;;;;;;;7.47;5.67;;;16.70;56.20;;;;;;5114673;28;20523;-82
2022/02/03 09:36:41;;;;;;;8.07;6.37;;;16.70;56.40;;;;;;5122274;28;20444;-82
2022/02/03 09:39:16;;;;;;;7.53;6.60;;;16.70;56.40;;;;;;5123165;28;20462;-82
2022/02/03 09:50:59;;;;;;;9.67;6.87;;;16.80;56.60;;;;;;5072203;28;20465;-82
2022/02/03 09:53:53;;;;;;;9.17;6.80;;;16.80;56.50;;;;;;5120348;28;20478;-82
2022/02/03 09:56:35;;;;;;;13.20;7.20;;;16.80;56.50;;;;;;5120018;28;20519;-82
2022/02/03 09:59:09;;;;;;;9.90;6.87;;;16.80;57.00;;;;;;5120863;28;20497;-82
2022/02/03 10:01:43;;;;;;;9.20;5.90;;;16.90;56.50;;;;;;5120864;28;20458;-82
2022/02/03 10:04:15;;;;;;;10.73;6.90;;;16.90;56.30;;;;;;5121322;28;20467;-81
2022/02/03 10:06:53;;;;;;;10.23;7.00;;;16.90;56.30;;;;;;5122466;28;20444;-81
2022/02/03 10:09:37;;;;;;;9.80;6.33;;;16.90;56.40;;;;;;5127640;28;20525;-81
2022/02/03 10:12:05;;;;;;;10.20;6.50;;;16.90;56.40;;;;;;5121216;28;20512;-82
2022/02/03 10:14:37;;;;;;;9.50;6.73;;;16.90;56.40;;;;;;5121081;28;20476;-82
2022/02/03 10:17:07;;;;;;;8.07;6.40;;;16.90;56.30;;;;;;5120896;28;20447;-82
2022/02/03 10:19:38;;;;;;;8.37;7.00;;;17.00;56.50;;;;;;5120400;28;20440;-82
2022/02/03 10:22:13;;;;;;;6.70;5.90;;;16.90;56.30;;;;;;5112074;28;20483;-82
2022/02/03 10:24:43;;;;;;;8.27;5.60;;;16.90;56.30;;;;;;5120634;28;20524;-82
2022/02/03 10:27:27;;;;;;;7.63;5.60;;;16.90;56.30;;;;;;5111426;28;20977;-81
2022/02/03 10:30:20;;;;;;;8.27;6.40;;;17.00;56.40;;;;;;5098379;28;20475;-82
2022/02/03 10:32:50;;;;;;;8.87;6.20;;;16.90;56.30;;;;;;5099099;28;20536;-82
2022/02/03 10:35:21;;;;;;;8.97;6.07;;;16.90;56.40;;;;;;5099980;28;20492;-82
2022/02/03 10:51:46;;;;;;;5.90;5.30;;;17.00;56.40;;;;;;5135233;27;20498;-82
2022/02/03 10:54:37;;;;;;;8.73;5.60;;;17.00;57.00;;;;;;5122151;28;20441;-82
2022/02/03 10:57:33;;;;;;;7.60;5.40;;;17.00;56.50;;;;;;5108981;28;20939;-82
2022/02/03 11:00:14;;;;;;;7.33;5.20;;;17.00;56.60;;;;;;5113310;28;20498;-82
2022/02/03 11:08:14;;;;;;;6.57;5.00;;;17.00;56.70;;;;;;5099029;28;20477;-82
2022/02/03 11:10:45;;;;;;;5.70;5.17;;;17.00;56.60;;;;;;5101203;28;20437;-82
2022/02/03 11:13:14;;;;;;;11.70;5.43;;;17.00;56.50;;;;;;5104605;28;20453;-82
2022/02/03 11:15:42;;;;;;;6.33;5.10;;;17.00;57.20;;;;;;5099295;28;20457;-83
2022/02/03 11:18:12;;;;;;;6.20;5.60;;;17.00;56.60;;;;;;5103680;28;20436;-82
2022/02/03 11:20:40;;;;;;;7.20;5.60;;;17.00;56.50;;;;;;5105772;28;20485;-82
2022/02/03 11:23:20;;;;;;;7.90;4.60;;;17.00;56.40;;;;;;5104950;28;20429;-82
2022/02/03 11:26:03;;;;;;;10.20;5.40;;;17.00;56.50;;;;;;5102951;28;20429;-82
2022/02/03 11:28:50;;;;;;;6.37;4.87;;;17.00;56.60;;;;;;5097463;28;20429;-82
2022/02/03 11:31:47;;;;;;;6.73;5.10;;;17.00;56.50;;;;;;5097076;28;20793;-83
2022/02/03 11:34:41;;;;;;;5.07;4.33;;;17.00;56.40;;;;;;5093673;28;20469;-84
2022/02/03 11:37:33;;;;;;;5.73;5.20;;;17.00;56.60;;;;;;5073849;28;20579;-86
2022/02/03 11:40:36;;;;;;;5.73;4.57;;;17.10;56.50;;;;;;5075387;28;20473;-84
2022/02/03 11:57:30;;;;;;;5.50;5.00;;;17.10;56.60;;;;;;5071670;28;20932;-83
2022/02/03 12:17:34;;;;;;;5.63;4.10;;;17.10;56.50;;;;;;5032643;28;20493;-83
2022/02/03 12:20:11;;;;;;;6.77;4.97;;;17.10;56.50;;;;;;5060215;28;20527;-83
2022/02/03 12:22:54;;;;;;;5.90;4.80;;;17.10;56.40;;;;;;5059592;28;20434;-83
2022/02/03 12:25:34;;;;;;;4.50;4.10;;;17.10;56.50;;;;;;5070822;28;20548;-82
2022/02/03 12:28:11;;;;;;;5.30;4.70;;;17.10;56.60;;;;;;5079732;28;20429;-82
2022/02/03 12:31:13;;;;;;;6.03;4.90;;;17.10;56.60;;;;;;5065383;28;20437;-82
2022/02/03 12:39:14;;;;;;;6.10;4.40;;;17.20;56.60;;;;;;5070871;28;20473;-82
2022/02/03 12:41:49;;;;;;;5.90;4.40;;;17.20;56.60;;;;;;5075157;28;20457;-81
2022/02/03 12:44:21;;;;;;;5.23;4.40;;;17.20;56.60;;;;;;5075327;28;20518;-82
2022/02/03 12:46:51;;;;;;;4.43;4.03;;;17.20;56.40;;;;;;5072797;28;20485;-81
2022/02/03 12:49:20;;;;;;;5.93;4.67;;;17.30;56.40;;;;;;5077910;28;20465;-82
2022/02/03 12:51:49;;;;;;;5.03;4.50;;;17.30;56.50;;;;;;5078273;28;20438;-81
2022/02/03 12:54:17;;;;;;;5.23;4.50;;;17.30;56.30;;;;;;5081068;28;20450;-83
2022/02/03 12:56:47;;;;;;;5.43;4.33;;;17.30;56.30;;;;;;5073683;28;20504;-83
2022/02/03 12:59:17;;;;;;;6.20;4.30;;;17.30;56.30;;;;;;5073229;28;20453;-82
2022/02/03 13:01:46;;;;;;;4.90;4.40;;;17.30;56.20;;;;;;5074407;28;20895;-84
2022/02/03 13:04:17;;;;;;;5.30;4.80;;;17.30;56.20;;;;;;5070805;28;20458;-83
2022/02/03 13:06:57;;;;;;;4.67;4.17;;;17.30;56.20;;;;;;5071040;28;20503;-83
2022/02/03 13:09:27;;;;;;;7.53;4.43;;;17.30;56.20;;;;;;5078371;28;20429;-82
2022/02/03 13:12:06;;;;;;;5.63;4.43;;;17.30;56.30;;;;;;5060176;28;20439;-81
2022/02/03 13:14:41;;;;;;;4.87;4.43;;;17.40;56.30;;;;;;5066080;28;20473;-81
2022/02/03 13:17:18;;;;;;;5.17;4.10;;;17.40;56.30;;;;;;5074386;28;20442;-82
2022/02/03 13:20:12;;;;;;;4.40;4.10;;;17.40;56.20;;;;;;5070222;28;20503;-81
2022/02/03 13:22:47;;;;;;;5.60;4.77;;;17.30;56.10;;;;;;5058478;28;20438;-82
2022/02/03 13:25:20;;;;;;;5.27;3.93;;;17.40;56.40;;;;;;5065873;28;20515;-82
2022/02/03 13:27:58;;;;;;;5.00;4.53;;;17.30;56.10;;;;;;5070246;28;20505;-82
2022/02/03 13:30:32;;;;;;;4.40;3.90;;;17.30;56.10;;;;;;5057460;28;20462;-82
2022/02/03 13:33:03;;;;;;;4.90;4.03;;;17.30;56.20;;;;;;5075233;28;20481;-83
2022/02/03 13:35:44;;;;;;;4.83;3.97;;;17.20;56.10;;;;;;5068336;28;20494;-82
2022/02/03 13:38:22;;;;;;;4.57;4.27;;;17.30;56.30;;;;;;5061456;28;20466;-83
2022/02/03 13:40:51;;;;;;;4.47;3.90;;;17.20;56.10;;;;;;5057733;28;20501;-81
2022/02/03 13:43:24;;;;;;;4.63;3.80;;;17.20;56.20;;;;;;5061587;28;20454;-82
2022/02/03 13:45:53;;;;;;;5.73;3.90;;;17.20;56.80;;;;;;5071549;28;20442;-82
2022/02/03 13:48:21;;;;;;;5.67;3.60;;;17.20;56.30;;;;;;5074397;28;20450;-82
2022/02/03 13:50:53;;;;;;;4.30;3.90;;;17.20;56.40;;;;;;5071758;28;20457;-82
2022/02/03 13:53:28;;;;;;;4.00;3.70;;;17.20;56.40;;;;;;5066627;28;20434;-82
2022/02/03 14:13:42;;;;;;;4.87;4.00;;;17.10;56.70;;;;;;5039705;28;20427;-84
2022/02/03 14:16:56;;;;;;;3.57;3.30;;;17.10;56.70;;;;;;5038430;28;20494;-83
2022/02/03 14:22:04;;;;;;;4.57;3.87;;;17.10;56.60;;;;;;5078054;28;20469;-84
2022/02/03 14:27:24;;;;;;;5.20;3.10;;;17.10;56.70;;;;;;5058552;28;20457;-82
2022/02/03 14:29:54;;;;;;;3.40;3.10;;;17.10;56.60;;;;;;5079292;28;20445;-83
2022/02/03 14:32:29;;;;;;;3.63;3.33;;;17.10;56.60;;;;;;5076899;28;20453;-83
2022/02/03 14:34:57;;;;;;;3.90;3.60;;;17.10;56.70;;;;;;5080757;28;20469;-82
2022/02/03 14:37:34;;;;;;;4.93;3.73;;;17.00;56.70;;;;;;5081277;28;20446;-82
2022/02/03 14:40:19;;;;;;;4.63;3.10;;;17.00;56.50;;;;;;5078957;28;20512;-84
2022/02/03 14:42:46;;;;;;;3.53;3.23;;;17.00;56.60;;;;;;5086300;28;20426;-84
2022/02/03 14:45:15;;;;;;;3.77;3.30;;;17.00;56.60;;;;;;5082309;28;20465;-83
2022/02/03 14:47:43;;;;;;;3.80;3.20;;;17.00;56.60;;;;;;5077915;28;20439;-83
2022/02/03 14:50:12;;;;;;;6.50;3.80;;;17.00;56.60;;;;;;5079396;28;20476;-82
2022/02/03 14:58:12;;;;;;;3.10;2.90;;;17.00;56.60;;;;;;5056483;28;20450;-83
2022/02/03 15:00:45;;;;;;;3.90;3.57;;;16.90;56.60;;;;;;5079093;28;20478;-83
2022/02/03 15:03:13;;;;;;;3.17;2.97;;;16.90;56.70;;;;;;5082899;28;20441;-83
2022/02/03 15:05:42;;;;;;;3.30;3.00;;;16.90;56.60;;;;;;5078795;28;20495;-83
2022/02/03 15:08:17;;;;;;;3.93;3.50;;;16.90;56.70;;;;;;5084323;28;20503;-83
2022/02/03 15:10:52;;;;;;;3.70;3.40;;;16.90;56.70;;;;;;5081921;28;20453;-84
2022/02/03 15:13:35;;;;;;;3.60;3.40;;;16.90;56.70;;;;;;5080324;28;20436;-84
2022/02/03 15:16:03;;;;;;;4.30;3.50;;;16.90;56.70;;;;;;5077904;28;20586;-84
2022/02/03 15:18:31;;;;;;;3.33;3.13;;;16.90;56.80;;;;;;5074328;28;20442;-84
2022/02/03 15:21:10;;;;;;;3.23;2.93;;;16.90;57.40;;;;;;5072803;28;20461;-84
2022/02/03 15:23:38;;;;;;;3.27;2.97;;;16.80;56.80;;;;;;5066293;28;20481;-84
2022/02/03 15:26:09;;;;;;;3.17;2.87;;;16.80;56.80;;;;;;5071562;28;20457;-84
2022/02/03 15:28:39;;;;;;;4.03;3.00;;;16.80;56.70;;;;;;5074523;28;20857;-84
2022/02/03 15:31:07;;;;;;;3.40;3.10;;;16.80;56.70;;;;;;5073853;28;20469;-84
2022/02/03 15:33:37;;;;;;;3.57;3.27;;;16.80;56.70;;;;;;5072747;28;20445;-84
2022/02/03 15:36:10;;;;;;;4.03;3.73;;;16.80;56.80;;;;;;5075614;28;20503;-84
2022/02/03 15:38:44;;;;;;;3.63;3.40;;;16.70;56.70;;;;;;5076712;28;20421;-83
2022/02/03 15:41:21;;;;;;;4.00;3.70;;;16.70;56.80;;;;;;5071327;28;20500;-84
2022/02/03 15:43:51;;;;;;;3.23;3.10;;;16.70;56.80;;;;;;5073304;28;20488;-85
2022/02/03 15:46:21;;;;;;;3.13;2.93;;;16.70;56.90;;;;;;5074765;28;20817;-86
2022/02/03 15:48:55;;;;;;;3.50;3.30;;;16.70;57.00;;;;;;5074216;28;20433;-84
2022/02/03 15:56:14;;;;;;;3.37;3.07;;;16.70;57.00;;;;;;5075366;28;20437;-83
2022/02/03 15:57:24;;;;;;;3.93;3.03;;;16.70;57.10;;;;;;5073617;28;20528;-85
2022/02/03 16:02:48;;;;;;;3.57;3.27;;;16.60;57.20;;;;;;5060331;28;21046;-84
2022/02/03 16:14:04;;;;;;;3.17;3.00;;;16.60;57.20;;;;;;5064007;28;20541;-84
2022/02/03 16:19:16;;;;;;;3.40;3.20;;;16.60;57.30;;;;;;5055796;28;20419;-84
2022/02/03 16:21:50;;;;;;;3.13;2.93;;;16.60;57.30;;;;;;5058359;28;20493;-84
2022/02/03 16:24:31;;;;;;;2.83;2.63;;;16.60;57.40;;;;;;5071568;28;20572;-84
2022/02/03 16:41:08;;;;;;;3.20;3.00;;;16.60;57.40;;;;;;5069575;28;20523;-85
2022/02/03 16:54:40;;;;;;;3.67;3.37;;;16.50;57.50;;;;;;5057827;28;20488;-86
2022/02/03 16:57:13;;;;;;;3.67;3.43;;;16.60;57.50;;;;;;5063298;28;20474;-86
2022/02/03 16:59:50;;;;;;;3.27;2.97;;;16.50;57.40;;;;;;5064851;28;20422;-86
2022/02/03 17:02:19;;;;;;;3.00;2.70;;;16.60;57.60;;;;;;5073464;28;20556;-85
2022/02/03 17:04:50;;;;;;;3.10;2.87;;;16.60;57.60;;;;;;5073464;28;20461;-86
2022/02/03 17:07:19;;;;;;;3.70;3.10;;;16.60;57.40;;;;;;5065417;28;20477;-85
2022/02/03 17:09:47;;;;;;;3.53;3.23;;;16.60;57.50;;;;;;5064730;28;20517;-85
2022/02/03 17:12:15;;;;;;;3.43;3.13;;;16.60;57.50;;;;;;5072389;28;20522;-85
2022/02/03 17:14:44;;;;;;;3.50;3.23;;;16.50;57.40;;;;;;5066872;28;20563;-85
2022/02/03 17:17:12;;;;;;;2.97;2.77;;;16.50;57.40;;;;;;5062892;28;20446;-84
2022/02/03 17:19:41;;;;;;;4.93;3.60;;;16.50;58.10;;;;;;5072397;28;20430;-85
2022/02/03 17:22:17;;;;;;;3.50;3.30;;;16.50;57.50;;;;;;5072623;28;20480;-85
2022/02/03 17:24:52;;;;;;;3.40;3.20;;;16.50;57.50;;;;;;5068807;28;20466;-85
2022/02/03 17:27:26;;;;;;;3.40;3.13;;;16.50;57.50;;;;;;5061050;28;20426;-85
2022/02/03 17:30:02;;;;;;;3.37;3.10;;;16.50;58.10;;;;;;5057121;28;20506;-84
2022/02/03 17:52:37;;;;;;;4.00;3.70;;;16.50;57.80;;;;;;5067015;28;20461;-85
2022/02/03 18:03:55;;;;;;;3.63;3.43;;;16.50;57.80;;;;;;5065504;28;20501;-84
2022/02/03 18:06:58;;;;;;;3.90;3.60;;;16.50;57.80;;;;;;5064429;28;20494;-85
2022/02/03 18:09:37;;;;;;;3.53;3.30;;;16.40;57.80;;;;;;5061510;28;20438;-85
2022/02/03 18:18:14;;;;;;;3.83;3.53;;;16.50;57.70;;;;;;5056413;28;20502;-84
2022/02/03 18:32:12;;;;;;;4.00;3.70;;;16.50;57.90;;;;;;5068641;28;20473;-83
2022/02/03 18:35:04;;;;;;;4.10;3.80;;;16.50;57.70;;;;;;5067939;28;20483;-84
2022/02/03 18:45:44;;;;;;;3.80;3.50;;;16.40;57.70;;;;;;5070650;28;20430;-84
2022/02/03 18:51:45;;;;;;;4.70;3.90;;;16.40;57.60;;;;;;5068941;28;20608;-86
2022/02/03 18:54:23;;;;;;;4.60;4.17;;;16.40;57.70;;;;;;5066452;28;20540;-85
2022/02/03 18:56:58;;;;;;;4.20;3.90;;;16.40;57.70;;;;;;5072220;28;20535;-86
2022/02/03 19:00:02;;;;;;;3.80;3.60;;;16.40;57.80;;;;;;5070890;28;20437;-87
2022/02/03 19:02:56;;;;;;;3.70;3.50;;;16.40;57.90;;;;;;5085921;28;20495;-85
2022/02/03 20:01:17;;;;;;;12.60;6.10;;;16.30;59.00;;;;;;5097214;28;20441;-85
2022/02/03 20:04:00;;;;;;;8.77;6.00;;;16.40;59.10;;;;;;5101890;28;20469;-87
2022/02/03 20:06:48;;;;;;;10.50;5.90;;;16.40;59.00;;;;;;5122344;28;20535;-86
2022/02/03 20:09:26;;;;;;;7.33;6.10;;;16.40;59.00;;;;;;5119241;28;20441;-86
2022/02/03 20:11:58;;;;;;;7.37;5.47;;;16.40;58.80;;;;;;5115672;28;20428;-86
2022/02/03 20:14:27;;;;;;;9.10;5.87;;;16.40;58.80;;;;;;5117906;28;20489;-85
2022/02/03 20:20:43;;;;;;;7.77;5.30;;;16.40;58.70;;;;;;5110860;28;20533;-88
2022/02/03 20:23:14;;;;;;;10.00;5.20;;;16.40;58.70;;;;;;5112632;28;20445;-85
2022/02/03 20:25:43;;;;;;;7.50;5.50;;;16.40;58.70;;;;;;5119831;28;20459;-85
2022/02/03 20:28:12;;;;;;;7.17;5.70;;;16.40;58.60;;;;;;5114164;28;20436;-86
2022/02/03 20:30:41;;;;;;;6.07;5.47;;;16.40;58.50;;;;;;5104442;28;20499;-85
2022/02/03 20:33:09;;;;;;;5.20;4.70;;;16.40;58.40;;;;;;5104722;28;20467;-86
2022/02/03 20:35:38;;;;;;;8.57;5.47;;;16.50;58.60;;;;;;5103164;28;20457;-87
2022/02/03 20:38:06;;;;;;;5.83;5.33;;;16.40;58.40;;;;;;5100806;28;20438;-86
2022/02/03 20:40:34;;;;;;;6.37;5.33;;;16.40;58.30;;;;;;5094835;28;20487;-86
2022/02/03 20:43:08;;;;;;;6.00;4.93;;;16.50;58.40;;;;;;5085540;28;20461;-86
2022/02/03 20:45:37;;;;;;;5.77;5.20;;;16.50;58.30;;;;;;5075991;28;20469;-86
2022/02/03 20:48:06;;;;;;;7.47;5.20;;;16.50;58.30;;;;;;5075435;28;20465;-86
2022/02/03 20:50:35;;;;;;;7.00;4.97;;;16.40;58.20;;;;;;5081581;28;20449;-86
2022/02/03 20:53:04;;;;;;;6.00;5.50;;;16.40;58.10;;;;;;5083667;28;20430;-85
2022/02/03 20:55:32;;;;;;;6.13;5.33;;;16.40;58.10;;;;;;5088686;28;20465;-86
2022/02/03 20:58:00;;;;;;;6.47;5.33;;;16.40;58.10;;;;;;5085696;28;20448;-86
2022/02/03 21:00:36;;;;;;;5.77;5.20;;;16.40;58.10;;;;;;5099383;28;20449;-85
2022/02/03 21:03:13;;;;;;;7.00;4.90;;;16.40;58.10;;;;;;5093985;28;20450;-85
2022/02/03 21:05:41;;;;;;;7.93;4.90;;;16.40;58.00;;;;;;5086280;28;20526;-86
2022/02/03 21:08:09;;;;;;;6.37;5.50;;;16.40;58.10;;;;;;5093896;28;20545;-85
2022/02/03 21:10:37;;;;;;;10.17;5.57;;;16.40;58.00;;;;;;5088852;28;20473;-85
2022/02/03 21:13:05;;;;;;;5.87;5.10;;;16.40;58.10;;;;;;5089459;28;20461;-85
2022/02/03 21:15:36;;;;;;;6.37;5.43;;;16.40;58.00;;;;;;5075473;28;20461;-86
2022/02/03 21:18:06;;;;;;;6.07;5.40;;;16.40;57.90;;;;;;5081894;28;20457;-86
2022/02/03 21:20:35;;;;;;;6.23;5.17;;;16.40;57.90;;;;;;5081226;28;20479;-85
2022/02/03 21:23:04;;;;;;;5.50;5.00;;;16.40;57.90;;;;;;5089854;28;20493;-85